Time;durP1;ratioP1;P1;durP2;ratioP2;P2;SDS_P1;SDS_P2;PMS_P1;PMS_P2;Temp;Humidity;BMP_temperature;BMP_pressure;BME280_temperature;BME280_humidity;BME280_pressure;Samples;Min_cycle;Max_cycle;Signal;HPM_P1;HPM_P2
2022/07/26 00:01:49;;;;;;;12.73;11.63;;;;;;;26.20;nan;94933.16;5028468;28;20242;-62
2022/07/26 00:04:16;;;;;;;15.48;12.13;;;;;;;26.33;nan;94925.78;5028480;28;20208;-65
2022/07/26 00:06:43;;;;;;;13.05;11.95;;;;;;;26.24;nan;94918.84;5030416;28;20672;-63
2022/07/26 00:09:10;;;;;;;12.60;11.57;;;;;;;26.21;nan;94926.97;5029796;28;20711;-63
2022/07/26 00:11:36;;;;;;;12.10;11.00;;;;;;;26.34;nan;94914.41;5028738;28;22276;-64
2022/07/26 00:14:07;;;;;;;12.32;11.23;;;;;;;26.38;nan;94915.75;5027996;28;20205;-63
2022/07/26 00:16:35;;;;;;;13.75;11.50;;;;;;;26.38;nan;94910.53;5028770;28;20748;-64
2022/07/26 00:19:02;;;;;;;12.75;11.70;;;;;;;26.37;nan;94919.31;5028546;28;20207;-62
2022/07/26 00:21:29;;;;;;;15.25;11.85;;;;;;;26.29;nan;94908.78;5029521;28;20202;-62
2022/07/26 00:23:56;;;;;;;14.25;12.85;;;;;;;25.12;nan;94908.84;5029167;28;20203;-64
2022/07/26 00:26:22;;;;;;;13.90;12.73;;;;;;;25.07;nan;94912.69;5028915;28;20276;-63
2022/07/26 00:28:49;;;;;;;15.20;11.43;;;;;;;25.26;nan;94911.78;5029694;28;20292;-63
2022/07/26 00:31:17;;;;;;;12.95;11.85;;;;;;;;;;5029328;28;21798;-63
2022/07/26 00:33:44;;;;;;;13.73;12.27;;;;;;;25.71;nan;94911.84;5028261;28;20269;-63
2022/07/26 00:36:10;;;;;;;12.93;11.73;;;;;;;;;;5027825;28;20269;-63
2022/07/26 00:38:37;;;;;;;13.90;12.70;;;;;;;;;;5028782;28;20966;-64
2022/07/26 00:41:04;;;;;;;13.73;12.43;;;;;;;25.77;nan;94906.03;5029656;28;20203;-64
2022/07/26 00:43:31;;;;;;;13.50;11.77;;;;;;;25.64;nan;94899.56;5027704;28;20272;-63
2022/07/26 00:45:58;;;;;;;12.48;10.95;;;;;;;25.54;nan;94898.78;5029055;28;20191;-64
2022/07/26 00:48:26;;;;;;;14.85;11.95;;;;;;;24.81;nan;94901.25;5029076;28;20207;-64
2022/07/26 00:50:54;;;;;;;14.35;12.88;;;;;;;24.69;nan;94903.22;5026045;28;20235;-62
2022/07/26 00:53:21;;;;;;;18.52;16.63;;;;;;;;;;5027752;28;20236;-63
2022/07/26 00:55:48;;;;;;;20.38;18.27;;;;;;;25.29;nan;94901.09;5028132;28;20207;-64
2022/07/26 00:58:15;;;;;;;12.40;11.48;;;;;;;25.58;nan;94900.13;5029075;28;20199;-63
2022/07/26 01:00:42;;;;;;;13.98;12.57;;;;;;;25.51;nan;94905.06;5028169;28;20203;-63
2022/07/26 01:03:09;;;;;;;15.07;13.68;;;;;;;25.56;nan;94912.47;5027424;28;20199;-63
2022/07/26 01:05:38;;;;;;;13.20;11.80;;;;;;;25.54;nan;94902.19;5026287;28;20494;-63
2022/07/26 01:08:04;;;;;;;16.20;12.57;;;;;;;;;;5026447;28;20207;-63
2022/07/26 01:10:31;;;;;;;13.23;11.80;;;;;;;;;;5024046;28;20216;-63
2022/07/26 01:12:58;;;;;;;13.95;12.65;;;;;;;25.57;nan;94903.69;5024797;28;20226;-63
2022/07/26 01:15:24;;;;;;;12.35;11.30;;;;;;;;;;5024985;28;20279;-64
2022/07/26 01:17:51;;;;;;;13.10;11.90;;;;;;;25.16;nan;94905.00;5025118;28;20269;-64
2022/07/26 01:20:18;;;;;;;12.20;11.18;;;;;;;25.16;nan;94899.81;5024747;28;20578;-64
2022/07/26 01:22:46;;;;;;;13.40;12.25;;;;;;;25.50;nan;94898.22;5024532;28;20199;-62
2022/07/26 01:25:13;;;;;;;13.13;12.00;;;;;;;25.46;nan;94896.09;5026198;28;20213;-63
2022/07/26 01:27:40;;;;;;;12.30;11.23;;;;;;;25.53;nan;94895.34;5024884;28;20268;-64
2022/07/26 01:30:09;;;;;;;12.10;11.20;;;;;;;25.66;nan;94898.47;5024477;28;20214;-63
2022/07/26 01:32:36;;;;;;;18.40;12.73;;;;;;;25.57;nan;94899.31;5023737;28;20720;-63
2022/07/26 01:35:03;;;;;;;12.13;10.90;;;;;;;;;;5024831;28;20207;-63
2022/07/26 01:37:30;;;;;;;12.52;11.43;;;;;;;25.61;nan;94905.84;5025782;28;20203;-64
2022/07/26 01:39:58;;;;;;;14.27;12.88;;;;;;;25.44;nan;94898.84;5026491;28;20258;-62
2022/07/26 01:42:25;;;;;;;12.90;11.88;;;;;;;25.39;nan;94901.06;5027171;28;20784;-64
2022/07/26 01:44:51;;;;;;;17.17;11.70;;;;;;;25.12;nan;94888.03;5026865;28;20451;-63
2022/07/26 01:47:18;;;;;;;13.20;12.18;;;;;;;25.28;nan;94898.63;5028244;28;20211;-63
2022/07/26 01:49:45;;;;;;;14.32;12.95;;;;;;;25.36;nan;94896.13;5028378;28;20268;-62
2022/07/26 01:52:11;;;;;;;16.83;14.35;;;;;;;;;;5028335;28;20316;-63
2022/07/26 01:54:38;;;;;;;13.27;11.85;;;;;;;;;;5027613;28;20195;-63
2022/07/26 01:57:06;;;;;;;13.20;11.98;;;;;;;;;;5026833;28;20420;-64
2022/07/26 01:59:32;;;;;;;12.80;11.63;;;;;;;25.57;nan;94894.09;5027041;28;20265;-63
2022/07/26 02:01:59;;;;;;;12.40;11.23;;;;;;;24.83;nan;94904.53;5026987;28;20281;-63
2022/07/26 02:07:10;;;;;;;12.95;11.73;;;;;;;23.14;nan;94908.41;5027986;28;20226;-63
2022/07/26 02:09:36;;;;;;;14.65;13.15;;;;;;;;;;5026789;28;20904;-64
2022/07/26 02:12:03;;;;;;;20.98;13.93;;;;;;;24.39;nan;94912.03;5028685;28;20284;-63
2022/07/26 02:14:31;;;;;;;12.63;11.52;;;;;;;;;;5027343;28;20222;-63
2022/07/26 02:16:59;;;;;;;14.02;11.85;;;;;;;;;;5025517;28;20203;-63
2022/07/26 02:19:26;;;;;;;14.00;12.75;;;;;;;;;;5025654;28;20201;-62
2022/07/26 02:21:52;;;;;;;11.80;10.85;;;;;;;;;;5028347;28;20243;-63
2022/07/26 02:24:19;;;;;;;18.10;16.23;;;;;;;25.60;nan;94913.81;5031672;28;20869;-64
2022/07/26 02:26:46;;;;;;;16.60;12.80;;;;;;;25.27;nan;94916.03;5032558;28;20684;-63
2022/07/26 02:29:13;;;;;;;14.23;12.85;;;;;;;25.34;nan;94918.88;5031573;28;20761;-63
2022/07/26 02:31:40;;;;;;;14.25;12.85;;;;;;;;;;5031773;28;20249;-63
2022/07/26 02:34:07;;;;;;;14.07;12.55;;;;;;;;;;5032452;28;20191;-63
2022/07/26 02:36:34;;;;;;;13.65;12.10;;;;;;;25.17;nan;94911.84;5031981;28;20203;-63
2022/07/26 02:39:01;;;;;;;12.57;11.30;;;;;;;24.47;nan;94908.75;5027416;28;20909;-63
2022/07/26 02:41:28;;;;;;;14.35;12.02;;;;;;;24.03;nan;94910.91;5030928;28;20771;-63
2022/07/26 02:43:54;;;;;;;12.93;11.75;;;;;;;23.98;nan;94907.09;5030920;28;20199;-63
2022/07/26 02:46:21;;;;;;;13.52;12.15;;;;;;;;;;5031610;28;20584;-64
2022/07/26 02:48:49;;;;;;;12.95;11.68;;;;;;;23.13;nan;94915.34;5031842;28;20214;-63
2022/07/26 02:51:15;;;;;;;12.35;11.35;;;;;;;;;;5030433;28;20724;-64
2022/07/26 02:53:42;;;;;;;16.33;12.68;;;;;;;;;;5031502;28;20227;-63
2022/07/26 02:56:08;;;;;;;13.73;12.23;;;;;;;;;;5029791;28;20207;-63
2022/07/26 02:58:36;;;;;;;15.57;11.23;;;;;;;;;;5029342;28;21033;-62
2022/07/26 03:01:03;;;;;;;13.88;12.55;;;;;;;;;;5027740;28;20206;-63
2022/07/26 03:03:30;;;;;;;16.50;12.40;;;;;;;24.56;nan;94928.66;5029991;28;20183;-62
2022/07/26 03:05:58;;;;;;;13.48;12.15;;;;;;;24.35;nan;94910.66;5031001;28;20215;-63
2022/07/26 03:08:24;;;;;;;13.02;11.82;;;;;;;;;;5030185;28;20730;-63
2022/07/26 03:10:51;;;;;;;13.15;12.05;;;;;;;24.17;nan;94927.88;5030168;28;20187;-63
2022/07/26 03:13:17;;;;;;;14.00;11.95;;;;;;;;;;5028573;28;20700;-62
2022/07/26 03:15:44;;;;;;;13.88;12.48;;;;;;;24.22;nan;94925.69;5029545;28;20464;-62
2022/07/26 03:18:11;;;;;;;13.95;12.68;;;;;;;;;;5030551;28;20258;-62
2022/07/26 03:20:37;;;;;;;15.10;13.68;;;;;;;;;;5027775;28;20260;-62
2022/07/26 03:23:06;;;;;;;14.68;13.13;;;;;;;23.92;nan;94923.22;5029262;28;20535;-63
2022/07/26 03:25:32;;;;;;;17.17;13.07;;;;;;;;;;5029989;28;20207;-63
2022/07/26 03:27:59;;;;;;;13.63;12.45;;;;;;;;;;5031096;28;20195;-62
2022/07/26 03:30:26;;;;;;;15.80;14.25;;;;;;;24.05;nan;94939.34;5030813;28;20199;-63
2022/07/26 03:32:52;;;;;;;14.18;12.85;;;;;;;;;;5029785;28;20211;-64
2022/07/26 03:35:19;;;;;;;13.80;12.52;;;;;;;24.16;nan;94936.63;5030351;28;20218;-63
2022/07/26 03:37:46;;;;;;;13.35;12.05;;;;;;;;;;5030646;28;20619;-63
2022/07/26 03:40:14;;;;;;;16.27;11.98;;;;;;;;;;5030304;28;20353;-64
2022/07/26 03:42:41;;;;;;;13.82;12.52;;;;;;;25.48;nan;94931.41;5029601;28;20203;-63
2022/07/26 03:45:08;;;;;;;13.77;12.57;;;;;;;;;;5029663;28;20199;-63
2022/07/26 03:47:36;;;;;;;13.18;12.07;;;;;;;25.96;nan;94936.34;5030807;28;20272;-63
2022/07/26 03:50:03;;;;;;;15.45;12.27;;;;;;;26.38;nan;94928.78;5029824;28;20795;-63
2022/07/26 03:52:29;;;;;;;13.98;12.60;;;;;;;26.53;nan;94923.81;5029214;28;20231;-63
2022/07/26 03:54:56;;;;;;;17.80;13.30;;;;;;;26.41;nan;94925.88;5029099;28;20285;-63
2022/07/26 03:57:23;;;;;;;13.13;11.82;;;;;;;;;;5030720;28;20203;-63
2022/07/26 03:59:49;;;;;;;13.00;11.93;;;;;;;;;;5030051;28;20573;-64
2022/07/26 04:02:16;;;;;;;16.98;12.50;;;;;;;26.22;nan;94931.22;5028813;28;20211;-63
2022/07/26 04:04:43;;;;;;;13.57;12.10;;;;;;;26.20;nan;94922.75;5029983;28;20237;-62
2022/07/26 04:07:10;;;;;;;16.55;11.48;;;;;;;26.37;nan;94934.97;5030784;28;20206;-62
2022/07/26 04:09:37;;;;;;;14.27;12.80;;;;;;;26.30;nan;94923.50;5029329;28;21103;-63
2022/07/26 04:12:04;;;;;;;15.57;13.60;;;;;;;;;;5027306;28;20203;-63
2022/07/26 04:14:32;;;;;;;14.95;13.38;;;;;;;26.42;nan;94917.09;5029106;28;20253;-64
2022/07/26 04:16:59;;;;;;;15.95;12.60;;;;;;;26.45;nan;94926.41;5029344;28;20207;-62
2022/07/26 04:19:25;;;;;;;15.63;12.02;;;;;;;26.37;nan;94924.53;5029883;28;20878;-63
2022/07/26 04:21:52;;;;;;;17.10;12.10;;;;;;;26.56;nan;94922.72;5028810;28;20696;-63
2022/07/26 04:24:19;;;;;;;15.18;13.27;;;;;;;26.71;nan;94911.59;5027479;28;20215;-64
2022/07/26 04:26:46;;;;;;;16.20;14.60;;;;;;;26.84;nan;94921.59;5028891;28;20211;-63
2022/07/26 04:29:14;;;;;;;16.77;15.02;;;;;;;27.02;nan;94913.75;5030351;28;20744;-64
2022/07/26 04:31:42;;;;;;;39.00;29.15;;;;;;;27.06;nan;94923.72;5029418;28;20199;-64
2022/07/26 04:34:08;;;;;;;32.53;21.80;;;;;;;;;;5028546;28;20657;-63
2022/07/26 04:36:35;;;;;;;32.13;23.67;;;;;;;27.26;nan;94905.22;5030138;28;20203;-62
2022/07/26 04:39:02;;;;;;;34.10;25.08;;;;;;;27.28;nan;94919.75;5028745;28;20677;-62
2022/07/26 04:41:28;;;;;;;18.42;16.48;;;;;;;;;;5027472;28;20215;-62
2022/07/26 04:43:55;;;;;;;25.08;15.05;;;;;;;27.44;nan;94909.38;5025735;28;20832;-62
2022/07/26 04:46:23;;;;;;;17.58;14.57;;;;;;;27.56;nan;94909.09;5028118;28;20203;-63
2022/07/26 04:48:52;;;;;;;15.93;13.57;;;;;;;27.58;nan;94905.38;5028118;28;20203;-62
2022/07/26 04:51:18;;;;;;;18.60;16.75;;;;;;;27.70;nan;94917.16;5027266;28;20744;-63
2022/07/26 04:53:45;;;;;;;17.63;16.00;;;;;;;27.64;nan;94914.38;5026884;28;20304;-63
2022/07/26 04:56:12;;;;;;;16.05;14.65;;;;;;;27.74;nan;94915.03;5028852;28;20639;-62
2022/07/26 04:58:39;;;;;;;19.38;17.35;;;;;;;27.87;nan;94911.97;5028408;28;20207;-63
2022/07/26 05:01:05;;;;;;;25.42;20.25;;;;;;;27.91;nan;94910.69;5028354;28;20685;-62
2022/07/26 05:03:33;;;;;;;20.65;16.77;;;;;;;27.89;nan;94902.19;5028995;28;20195;-62
2022/07/26 05:06:01;;;;;;;17.10;15.50;;;;;;;27.94;nan;94910.34;5029656;28;20215;-61
2022/07/26 05:08:28;;;;;;;29.23;24.52;;;;;;;28.01;nan;94912.16;5028748;28;20199;-62
2022/07/26 05:10:55;;;;;;;27.90;21.92;;;;;;;28.11;nan;94912.81;5029162;28;20206;-62
2022/07/26 05:13:22;;;;;;;18.05;16.20;;;;;;;28.22;nan;94896.03;5028199;28;20230;-62
2022/07/26 05:15:48;;;;;;;19.30;15.10;;;;;;;28.36;nan;94892.78;5027667;28;20207;-62
2022/07/26 05:18:16;;;;;;;16.85;14.63;;;;;;;28.40;nan;94896.69;5029054;28;21086;-63
2022/07/26 05:20:42;;;;;;;17.42;15.60;;;;;;;28.95;nan;94888.16;5028076;28;20202;-62
2022/07/26 05:23:11;;;;;;;17.38;15.52;;;;;;;29.76;nan;94903.53;5027048;28;20207;-63
2022/07/26 05:25:38;;;;;;;16.63;14.88;;;;;;;31.19;nan;94893.22;5027720;28;20235;-62
2022/07/26 05:28:05;;;;;;;14.55;13.20;;;;;;;33.37;nan;94885.63;5028726;28;20227;-62
2022/07/26 05:30:32;;;;;;;24.15;15.63;;;;;;;35.24;nan;94889.13;5029201;28;20846;-63
2022/07/26 05:32:58;;;;;;;17.80;15.07;;;;;;;37.03;nan;94892.41;5027919;28;20207;-63
2022/07/26 05:35:25;;;;;;;15.40;13.82;;;;;;;;;;5027527;28;20257;-63
2022/07/26 05:37:52;;;;;;;17.00;14.68;;;;;;;39.79;nan;94884.06;5028038;28;20195;-62
2022/07/26 05:40:20;;;;;;;16.67;14.88;;;;;;;40.53;nan;94881.44;5028694;28;21708;-62
2022/07/26 05:42:47;;;;;;;16.15;14.68;;;;;;;41.28;nan;94881.00;5027385;28;20293;-63
2022/07/26 05:45:14;;;;;;;23.52;15.88;;;;;;;41.94;nan;94873.78;5027545;28;20206;-63
2022/07/26 05:47:40;;;;;;;14.73;13.63;;;;;;;42.10;nan;94863.03;5028285;28;20203;-63
2022/07/26 05:50:07;;;;;;;16.42;14.70;;;;;;;;;;5028573;28;20199;-64
2022/07/26 05:52:34;;;;;;;17.00;15.18;;;;;;;42.20;nan;94873.03;5027160;28;21741;-64
2022/07/26 05:55:01;;;;;;;16.48;14.75;;;;;;;42.25;nan;94869.59;5027927;28;20280;-64
2022/07/26 05:57:29;;;;;;;22.30;15.10;;;;;;;42.20;nan;94867.69;5028053;28;20203;-64
2022/07/26 05:59:56;;;;;;;15.43;14.00;;;;;;;42.43;nan;94872.72;5027473;28;20970;-64
2022/07/26 06:02:23;;;;;;;18.67;16.83;;;;;;;42.32;nan;94865.66;5027074;28;20223;-63
2022/07/26 06:04:49;;;;;;;18.85;16.02;;;;;;;41.65;nan;94876.69;5027596;28;20257;-64
2022/07/26 06:07:16;;;;;;;20.67;17.65;;;;;;;41.36;nan;94861.88;5028864;28;20206;-64
2022/07/26 06:09:43;;;;;;;20.77;17.15;;;;;;;41.64;nan;94855.59;5028133;28;20194;-62
2022/07/26 06:12:10;;;;;;;17.63;15.88;;;;;;;41.71;nan;94851.69;5025908;28;20208;-63
2022/07/26 06:14:38;;;;;;;19.08;14.43;;;;;;;41.02;nan;94840.63;5025603;28;20285;-64
2022/07/26 06:17:05;;;;;;;16.88;15.13;;;;;;;41.52;nan;94847.69;5028093;28;20300;-64
2022/07/26 06:19:32;;;;;;;16.17;14.55;;;;;;;41.45;nan;94839.88;5027125;28;20207;-63
2022/07/26 06:22:00;;;;;;;16.45;13.80;;;;;;;41.37;nan;94837.63;5027035;28;20214;-63
2022/07/26 06:24:26;;;;;;;16.95;15.25;;;;;;;41.00;nan;94837.41;5027599;28;20203;-63
2022/07/26 06:26:54;;;;;;;21.30;16.13;;;;;;;40.60;nan;94836.75;5026961;28;20700;-62
2022/07/26 06:29:22;;;;;;;17.42;14.63;;;;;;;40.30;nan;94843.22;5027889;28;20288;-63
2022/07/26 06:31:50;;;;;;;17.42;15.70;;;;;;;40.31;nan;94842.19;5026568;28;20672;-63
2022/07/26 06:34:17;;;;;;;17.73;15.35;;;;;;;40.36;nan;94836.13;5026240;28;20254;-62
2022/07/26 06:36:44;;;;;;;22.38;15.63;;;;;;;39.70;nan;94838.38;5027523;28;20199;-63
2022/07/26 06:39:11;;;;;;;23.45;14.65;;;;;;;38.60;nan;94837.59;5025688;28;20209;-62
2022/07/26 06:41:38;;;;;;;24.08;15.40;;;;;;;38.56;nan;94841.72;5025620;28;20261;-63
2022/07/26 06:44:05;;;;;;;15.13;13.68;;;;;;;38.78;nan;94840.94;5028202;28;20278;-63
2022/07/26 06:46:31;;;;;;;214.45;157.13;;;;;;;38.45;nan;94851.28;5028141;28;20300;-64
2022/07/26 06:49:00;;;;;;;26.70;16.38;;;;;;;37.91;nan;94845.13;5027663;28;20199;-64
2022/07/26 06:51:26;;;;;;;22.33;15.68;;;;;;;38.13;nan;94848.09;5027183;28;20304;-65
2022/07/26 06:53:54;;;;;;;20.50;16.20;;;;;;;37.91;nan;94839.81;5027575;28;20928;-66
2022/07/26 06:56:21;;;;;;;27.98;15.23;;;;;;;37.54;nan;94839.06;5027622;28;21053;-62
2022/07/26 06:58:48;;;;;;;21.77;14.63;;;;;;;36.79;nan;94841.09;5027907;28;20195;-63
2022/07/26 07:01:15;;;;;;;20.33;16.17;;;;;;;36.87;nan;94837.38;5025695;28;20211;-63
2022/07/26 07:03:42;;;;;;;22.35;15.10;;;;;;;36.86;nan;94835.75;5027397;28;20199;-64
2022/07/26 07:06:10;;;;;;;18.13;13.15;;;;;;;36.59;nan;94840.44;5028085;28;20222;-64
2022/07/26 07:08:37;;;;;;;21.63;13.82;;;;;;;36.14;nan;94859.06;5029980;28;20200;-65
2022/07/26 07:11:03;;;;;;;34.20;15.20;;;;;;;35.91;nan;94837.66;5030111;28;20211;-64
2022/07/26 07:13:30;;;;;;;19.85;14.07;;;;;;;35.56;nan;94838.03;5031967;28;20264;-64
2022/07/26 07:15:57;;;;;;;14.90;13.50;;;;;;;35.49;nan;94845.16;5031990;28;20206;-64
2022/07/26 07:18:24;;;;;;;25.65;15.05;;;;;;;34.10;nan;94841.88;5029843;28;20226;-64
2022/07/26 07:20:51;;;;;;;16.33;14.25;;;;;;;33.92;nan;94842.44;5030781;28;20214;-64
2022/07/26 07:23:21;;;;;;;15.20;13.75;;;;;;;33.76;nan;94840.97;5029930;28;20199;-65
2022/07/26 07:25:49;;;;;;;15.85;13.73;;;;;;;33.54;nan;94841.31;5031546;28;20668;-65
2022/07/26 07:28:15;;;;;;;14.73;13.52;;;;;;;33.03;nan;94842.47;5030581;28;20658;-63
2022/07/26 07:30:42;;;;;;;17.35;12.65;;;;;;;33.35;nan;94846.31;5030468;28;20741;-64
2022/07/26 07:33:11;;;;;;;15.50;13.73;;;;;;;33.17;nan;94842.53;5028799;28;20199;-63
2022/07/26 07:35:38;;;;;;;14.80;13.20;;;;;;;;;;5030161;28;20666;-65
2022/07/26 07:38:05;;;;;;;14.88;13.40;;;;;;;32.92;nan;94839.56;5030049;28;20203;-64
2022/07/26 07:40:33;;;;;;;15.20;12.38;;;;;;;32.86;nan;94830.66;5029762;28;21196;-64
2022/07/26 07:43:00;;;;;;;24.55;14.15;;;;;;;32.39;nan;94829.50;5030334;28;20288;-64
2022/07/26 07:45:27;;;;;;;16.17;14.45;;;;;;;32.11;nan;94833.88;5030377;28;20199;-64
2022/07/26 07:47:54;;;;;;;17.58;13.48;;;;;;;32.00;nan;94824.66;5029448;28;20755;-63
2022/07/26 07:50:21;;;;;;;16.58;13.88;;;;;;;31.73;nan;94823.59;5030535;28;20638;-64
2022/07/26 07:52:48;;;;;;;17.10;15.55;;;;;;;31.83;nan;94827.75;5029333;28;20774;-64
2022/07/26 07:55:14;;;;;;;14.80;13.57;;;;;;;32.04;nan;94825.09;5030305;28;20227;-64
2022/07/26 07:57:42;;;;;;;17.42;15.05;;;;;;;32.19;nan;94823.19;5030725;28;20195;-63
2022/07/26 08:00:11;;;;;;;15.50;13.80;;;;;;;32.22;nan;94817.59;5029530;28;20245;-63
2022/07/26 08:02:38;;;;;;;18.55;13.93;;;;;;;32.39;nan;94824.22;5029562;28;20203;-64
2022/07/26 08:05:06;;;;;;;16.65;13.50;;;;;;;32.66;nan;94819.16;5030804;28;20284;-63
2022/07/26 08:07:33;;;;;;;21.92;13.93;;;;;;;32.91;nan;94816.91;5030425;28;20278;-63
2022/07/26 08:10:00;;;;;;;17.77;14.13;;;;;;;33.16;nan;94820.69;5029647;28;20202;-64
2022/07/26 08:12:26;;;;;;;17.25;14.20;;;;;;;;;;5028585;28;20206;-63
2022/07/26 08:14:55;;;;;;;17.23;13.68;;;;;;;32.97;nan;94822.19;5029636;28;20227;-64
2022/07/26 08:17:21;;;;;;;14.38;12.88;;;;;;;32.77;nan;94801.03;5030198;28;20199;-64
2022/07/26 08:19:48;;;;;;;14.32;13.05;;;;;;;32.91;nan;94803.75;5030023;28;20203;-65
2022/07/26 08:22:15;;;;;;;22.05;14.40;;;;;;;32.72;nan;94808.66;5028404;28;20204;-64
2022/07/26 08:24:44;;;;;;;15.15;13.70;;;;;;;32.41;nan;94803.81;5029375;28;20713;-65
2022/07/26 08:27:11;;;;;;;17.60;14.25;;;;;;;32.53;nan;94792.75;5030037;28;20211;-63
2022/07/26 08:29:38;;;;;;;18.42;14.68;;;;;;;32.71;nan;94796.50;5029325;28;20917;-64
2022/07/26 08:32:06;;;;;;;15.60;13.65;;;;;;;32.81;nan;94790.94;5028244;28;20655;-64
2022/07/26 08:34:33;;;;;;;15.10;13.43;;;;;;;33.04;nan;94780.09;5029517;28;20309;-64
2022/07/26 08:37:00;;;;;;;14.80;13.50;;;;;;;33.15;nan;94786.63;5029616;28;20843;-64
2022/07/26 08:39:26;;;;;;;14.23;12.90;;;;;;;33.22;nan;94787.44;5029709;28;20203;-64
2022/07/26 08:41:53;;;;;;;15.63;14.02;;;;;;;33.23;nan;94789.06;5028666;28;20210;-64
2022/07/26 08:44:20;;;;;;;15.05;13.65;;;;;;;32.71;nan;94790.41;5029101;28;20203;-63
2022/07/26 08:46:47;;;;;;;16.40;13.65;;;;;;;32.35;nan;94780.91;5029743;28;20280;-62
2022/07/26 08:49:15;;;;;;;14.38;12.90;;;;;;;31.96;nan;94780.53;5029207;28;20199;-63
2022/07/26 08:51:43;;;;;;;15.27;13.68;;;;;;;;;;5027193;28;20565;-63
2022/07/26 08:54:11;;;;;;;15.55;14.02;;;;;;;32.34;nan;94779.28;5029339;28;20264;-64
2022/07/26 08:56:41;;;;;;;13.88;12.63;;;;;;;32.33;nan;94777.66;5028465;28;20286;-65
2022/07/26 08:59:13;;;;;;;14.43;13.15;;;;;;;32.09;nan;94776.22;5028014;28;20660;-63
2022/07/26 09:01:54;;;;;;;13.48;12.20;;;;;;;32.31;nan;94784.91;5052554;23;20235;-65
2022/07/26 09:04:24;;;;;;;15.25;14.00;;;;;;;32.81;nan;94776.94;5032317;28;20198;-64
2022/07/26 09:06:56;;;;;;;14.30;12.98;;;;;;;33.04;nan;94769.56;5032278;28;20652;-63
2022/07/26 09:09:23;;;;;;;13.82;12.60;;;;;;;33.34;nan;94765.66;5033429;28;20206;-64
2022/07/26 09:11:50;;;;;;;70.18;53.05;;;;;;;33.10;nan;94777.50;5031445;28;20207;-64
2022/07/26 09:14:17;;;;;;;16.83;15.13;;;;;;;32.92;nan;94776.38;5032020;28;20218;-63
2022/07/26 09:16:57;;;;;;;14.13;12.57;;;;;;;32.97;nan;94779.25;5032491;28;20199;-64
2022/07/26 09:19:26;;;;;;;14.10;12.88;;;;;;;32.65;nan;94770.97;5033368;28;20249;-65
2022/07/26 09:21:56;;;;;;;14.70;13.50;;;;;;;32.25;nan;94775.16;5029876;28;20203;-65
2022/07/26 09:24:34;;;;;;;15.05;13.45;;;;;;;31.93;nan;94776.47;5031980;28;20233;-63
2022/07/26 09:27:03;;;;;;;17.85;13.38;;;;;;;32.20;nan;94766.97;5031638;28;20486;-64
2022/07/26 09:29:31;;;;;;;18.08;15.25;;;;;;;32.36;nan;94771.19;5031836;28;20280;-63
2022/07/26 09:32:12;;;;;;;32.40;23.92;;;;;;;32.92;nan;94745.59;5031067;28;20294;-63
2022/07/26 09:34:40;;;;;;;17.13;15.35;;;;;;;;;;5031609;28;20229;-62
2022/07/26 09:37:07;;;;;;;14.18;12.70;;;;;;;33.17;nan;94763.53;5031578;28;20772;-65
2022/07/26 09:39:53;;;;;;;15.38;11.73;;;;;;;33.35;nan;94755.94;5032222;28;20213;-64
2022/07/26 09:42:21;;;;;;;13.07;12.00;;;;;;;33.12;nan;94754.41;5030823;28;20203;-63
2022/07/26 09:44:48;;;;;;;12.73;11.15;;;;;;;33.27;nan;94756.91;5032228;28;20199;-64
2022/07/26 09:47:15;;;;;;;13.13;11.73;;;;;;;33.56;nan;94758.41;5030867;28;20708;-63
2022/07/26 09:49:43;;;;;;;12.10;11.05;;;;;;;33.32;nan;94756.34;5031236;28;20937;-65
2022/07/26 09:52:14;;;;;;;15.25;12.48;;;;;;;;;;5031102;28;20202;-64
2022/07/26 09:54:40;;;;;;;18.25;16.30;;;;;;;33.43;nan;94746.00;5031913;28;20582;-64
2022/07/26 09:57:07;;;;;;;13.00;11.57;;;;;;;33.47;nan;94744.59;5031245;28;20613;-65
2022/07/26 09:59:34;;;;;;;26.48;22.70;;;;;;;33.65;nan;94746.69;5031297;28;20203;-64
2022/07/26 10:02:01;;;;;;;36.88;30.58;;;;;;;33.92;nan;94747.53;5030083;28;20210;-63
2022/07/26 10:04:28;;;;;;;19.92;17.90;;;;;;;34.06;nan;94743.88;5030513;28;20199;-64
2022/07/26 10:06:57;;;;;;;17.90;16.30;;;;;;;34.03;nan;94744.28;5031782;28;20199;-63
2022/07/26 10:09:25;;;;;;;13.50;12.02;;;;;;;34.21;nan;94735.75;5030787;28;20206;-62
2022/07/26 10:11:56;;;;;;;13.32;12.13;;;;;;;33.75;nan;94747.09;5030192;28;20198;-63
2022/07/26 10:14:44;;;;;;;11.05;10.35;;;;;;;33.78;nan;94732.72;5030998;28;20203;-62
2022/07/26 10:17:40;;;;;;;15.00;11.38;;;;;;;33.60;nan;94733.28;5030499;28;20640;-63
2022/07/26 10:20:07;;;;;;;12.20;10.98;;;;;;;;;;5031314;28;21438;-63
2022/07/26 10:22:44;;;;;;;10.80;10.07;;;;;;;33.79;nan;94727.25;5030794;28;20195;-63
2022/07/26 10:25:46;;;;;;;13.38;12.05;;;;;;;33.86;nan;94727.25;5030688;28;20195;-64
2022/07/26 10:28:25;;;;;;;12.02;11.18;;;;;;;33.82;nan;94720.78;5032384;28;20216;-63
2022/07/26 10:30:52;;;;;;;12.27;11.35;;;;;;;33.78;nan;94717.72;5030052;28;20289;-63
2022/07/26 10:33:23;;;;;;;11.60;10.70;;;;;;;33.72;nan;94721.13;5028673;28;20334;-63
2022/07/26 10:35:50;;;;;;;13.43;12.25;;;;;;;33.91;nan;94718.72;5029708;28;20227;-62
2022/07/26 10:38:25;;;;;;;12.13;11.05;;;;;;;33.73;nan;94720.13;5031062;28;20203;-62
2022/07/26 10:40:59;;;;;;;12.18;11.13;;;;;;;33.58;nan;94703.69;5029691;28;20199;-63
2022/07/26 10:43:27;;;;;;;11.77;10.65;;;;;;;33.18;nan;94710.66;5031495;28;20248;-63
2022/07/26 10:46:23;;;;;;;12.07;10.75;;;;;;;33.16;nan;94699.53;5034565;28;20202;-63
2022/07/26 10:48:57;;;;;;;10.98;10.18;;;;;;;32.97;nan;94695.81;5035660;28;20206;-62
2022/07/26 10:51:26;;;;;;;11.98;10.85;;;;;;;32.85;nan;94702.69;5035649;28;20249;-63
2022/07/26 10:54:01;;;;;;;13.48;10.38;;;;;;;32.99;nan;94693.00;5034534;28;20286;-63
2022/07/26 10:56:28;;;;;;;11.60;10.57;;;;;;;32.78;nan;94691.31;5035415;28;20226;-63
2022/07/26 10:58:55;;;;;;;11.75;10.65;;;;;;;32.52;nan;94680.63;5035412;28;20209;-63
2022/07/26 11:01:22;;;;;;;11.55;10.65;;;;;;;32.52;nan;94670.09;5035619;28;20685;-63
2022/07/26 11:03:49;;;;;;;13.18;10.75;;;;;;;32.62;nan;94673.22;5034391;28;20203;-63
2022/07/26 11:06:18;;;;;;;14.98;11.13;;;;;;;33.05;nan;94666.69;5035056;28;20254;-63
2022/07/26 11:08:47;;;;;;;10.57;9.85;;;;;;;33.19;nan;94666.72;5034363;28;20252;-63
2022/07/26 11:11:28;;;;;;;10.77;9.90;;;;;;;33.47;nan;94660.31;5034188;28;20211;-64
2022/07/26 11:14:05;;;;;;;11.60;10.73;;;;;;;33.65;nan;94661.53;5033684;28;20314;-63
2022/07/26 11:16:37;;;;;;;11.48;10.38;;;;;;;34.06;nan;94648.97;5033338;28;20233;-63
2022/07/26 11:19:13;;;;;;;11.57;10.77;;;;;;;34.11;nan;94650.97;5035704;28;20860;-63
2022/07/26 11:21:40;;;;;;;11.27;10.38;;;;;;;34.18;nan;94656.22;5034204;28;20587;-64
2022/07/26 11:24:07;;;;;;;10.88;10.07;;;;;;;34.13;nan;94643.69;5033478;28;20294;-64
2022/07/26 11:26:42;;;;;;;11.82;11.00;;;;;;;34.12;nan;94636.78;5033578;28;20211;-63
2022/07/26 11:29:09;;;;;;;21.15;18.98;;;;;;;34.20;nan;94638.38;5033924;28;20206;-64
2022/07/26 11:31:39;;;;;;;28.65;25.55;;;;;;;34.17;nan;94639.59;5033149;28;20607;-64
2022/07/26 11:34:07;;;;;;;16.63;15.02;;;;;;;33.94;nan;94639.22;5034686;28;20203;-63
2022/07/26 11:36:36;;;;;;;18.98;17.27;;;;;;;34.11;nan;94638.59;5033700;28;21068;-64
2022/07/26 11:39:04;;;;;;;41.38;36.47;;;;;;;34.09;nan;94630.09;5034557;28;20203;-64
2022/07/26 11:41:31;;;;;;;46.40;40.58;;;;;;;34.30;nan;94622.97;5033735;28;20261;-64
2022/07/26 11:44:00;;;;;;;15.32;13.98;;;;;;;34.35;nan;94620.53;5034224;28;20215;-63
2022/07/26 11:46:39;;;;;;;14.95;13.50;;;;;;;34.38;nan;94620.09;5033413;28;20195;-63
2022/07/26 11:49:14;;;;;;;19.88;17.98;;;;;;;34.56;nan;94617.59;5035716;28;20203;-62
2022/07/26 11:51:47;;;;;;;22.23;19.50;;;;;;;34.64;nan;94619.19;5033572;28;20245;-65
2022/07/26 11:54:14;;;;;;;19.38;14.70;;;;;;;34.64;nan;94617.38;5032965;28;20195;-64
2022/07/26 11:56:50;;;;;;;17.35;15.75;;;;;;;34.67;nan;94616.09;5035001;28;20308;-64
2022/07/26 11:59:19;;;;;;;17.00;15.50;;;;;;;34.77;nan;94616.47;5033833;28;20212;-64
2022/07/26 12:01:46;;;;;;;20.20;18.30;;;;;;;34.87;nan;94614.22;5033228;28;20283;-64
2022/07/26 12:04:18;;;;;;;29.77;26.98;;;;;;;34.84;nan;94604.09;5034320;28;20199;-64